Terminal Aerodrome Forecast
Issued by NWS

Home | Current Version | Previous Version | Text Only | Print | Product List | Glossary On
Versions: 1 2 3 4 5 6 7 8 9 10 11 12 13 14 15 16
000
FTUS41 KCAR 262330 CCA
TAFBHB
TAF COR
KBHB 262330Z 2700/2724 20006KT P6SM SCT250
     FM270800 20005KT 3SM BR SCT004
     FM271200 20008KT P6SM BKN015
     FM271700 21010KT P6SM BKN010
      AMD NOT SKED=

USA.gov is the U.S. government's official web portal to all federal, state and local government web resources and services.